Time;durP1;ratioP1;P1;durP2;ratioP2;P2;SDS_P1;SDS_P2;PMS_P1;PMS_P2;Temp;Humidity;BMP_temperature;BMP_pressure;BME280_temperature;BME280_humidity;BME280_pressure;Samples;Min_cycle;Max_cycle;Signal;HPM_P1;HPM_P2
2023/12/06 00:01:26;;;;;;;;;;;3.10;99.90;;;;;;8425927;28;19930;-73
2023/12/06 00:05:27;;;;;;;;;;;3.10;99.90;;;;;;8424695;28;20337;-73
2023/12/06 00:09:29;;;;;;;;;;;3.10;99.90;;;;;;8424508;28;19931;-73
2023/12/06 00:13:31;;;;;;;;;;;3.10;99.90;;;;;;8427359;28;19960;-73
2023/12/06 00:17:32;;;;;;;;;;;3.10;99.90;;;;;;8410800;28;19931;-73
2023/12/06 00:21:34;;;;;;;;;;;3.10;99.90;;;;;;8427007;28;19931;-73
2023/12/06 00:25:36;;;;;;;;;;;3.10;99.90;;;;;;8427517;28;19932;-73
2023/12/06 00:29:38;;;;;;;;;;;3.20;99.90;;;;;;8430061;28;20291;-73
2023/12/06 00:33:39;;;;;;;;;;;3.20;99.90;;;;;;8427556;28;19936;-72
2023/12/06 00:37:42;;;;;;;;;;;3.20;99.90;;;;;;8426047;28;20380;-72
2023/12/06 00:41:43;;;;;;;;;;;3.20;99.90;;;;;;8431655;28;19924;-73
2023/12/06 00:45:45;;;;;;;;;;;3.20;99.90;;;;;;8420551;28;20597;-73
2023/12/06 00:49:47;;;;;;;;;;;3.20;99.90;;;;;;8430528;28;19970;-73
2023/12/06 00:53:48;;;;;;;;;;;3.20;99.90;;;;;;8429588;28;19924;-72
2023/12/06 00:57:50;;;;;;;;;;;3.20;99.90;;;;;;8427386;28;19924;-73
2023/12/06 01:01:52;;;;;;;;;;;3.20;99.90;;;;;;8429781;28;19924;-72
2023/12/06 01:05:54;;;;;;;;;;;3.20;99.90;;;;;;8425386;28;19932;-73
2023/12/06 01:09:55;;;;;;;;;;;3.20;99.90;;;;;;8430516;28;19952;-73
2023/12/06 01:13:57;;;;;;;;;;;3.20;99.90;;;;;;8427100;28;19978;-72
2023/12/06 01:17:59;;;;;;;;;;;3.20;99.90;;;;;;8420558;28;20386;-73
2023/12/06 01:22:00;;;;;;;;;;;3.20;99.90;;;;;;8425436;28;19996;-72
2023/12/06 01:26:02;;;;;;;;;;;3.30;99.90;;;;;;8454528;27;19954;-72
2023/12/06 01:30:04;;;;;;;;;;;3.30;99.90;;;;;;8429387;28;19924;-72
2023/12/06 01:34:12;;;;;;;;;;;3.30;99.90;;;;;;8437228;28;20331;-73
2023/12/06 01:38:14;;;;;;;;;;;3.30;99.90;;;;;;8426726;28;19966;-73
2023/12/06 01:42:16;;;;;;;;;;;3.30;99.90;;;;;;8432357;28;19924;-73
2023/12/06 01:46:18;;;;;;;;;;;3.40;99.90;;;;;;8427107;28;19969;-74
2023/12/06 01:50:20;;;;;;;;;;;3.40;99.90;;;;;;8438853;28;20291;-73
2023/12/06 01:54:22;;;;;;;;;;;3.40;99.90;;;;;;8426316;28;20387;-72
2023/12/06 01:58:24;;;;;;;;;;;3.40;99.90;;;;;;8421527;28;19932;-73
2023/12/06 02:02:26;;;;;;;;;;;3.50;99.90;;;;;;8427180;28;19983;-73
2023/12/06 02:06:28;;;;;;;;;;;3.50;99.90;;;;;;8426293;28;19993;-73
2023/12/06 02:10:30;;;;;;;;;;;3.50;99.90;;;;;;8423226;28;19928;-73
2023/12/06 02:14:34;;;;;;;;;;;3.50;99.90;;;;;;8424680;28;19939;-72
2023/12/06 02:18:36;;;;;;;;;;;3.50;99.90;;;;;;8419296;28;19936;-72
2023/12/06 02:22:38;;;;;;;;;;;3.50;99.90;;;;;;8428249;28;19977;-73
2023/12/06 02:26:40;;;;;;;;;;;3.50;99.90;;;;;;8415244;28;19924;-72
2023/12/06 02:30:41;;;;;;;;;;;3.50;99.90;;;;;;8421879;28;19924;-72
2023/12/06 02:34:44;;;;;;;;;;;3.50;99.90;;;;;;8425862;28;20314;-72
2023/12/06 02:38:46;;;;;;;;;;;3.50;99.90;;;;;;8421630;28;19968;-73
2023/12/06 02:42:48;;;;;;;;;;;3.50;99.90;;;;;;8435145;28;19953;-73
2023/12/06 02:46:50;;;;;;;;;;;3.60;99.90;;;;;;8428597;28;19989;-72
2023/12/06 02:50:51;;;;;;;;;;;3.60;99.90;;;;;;8425157;28;19963;-72
2023/12/06 02:54:53;;;;;;;;;;;3.60;99.90;;;;;;8428008;28;20330;-73
2023/12/06 02:58:55;;;;;;;;;;;3.60;99.90;;;;;;8433315;28;19984;-73
2023/12/06 03:02:56;;;;;;;;;;;3.60;99.90;;;;;;8425281;28;20321;-73
2023/12/06 03:06:58;;;;;;;;;;;3.60;99.90;;;;;;8425355;28;19928;-73
2023/12/06 03:11:00;;;;;;;;;;;3.60;99.90;;;;;;8425509;28;19959;-73
2023/12/06 03:15:01;;;;;;;;;;;3.60;99.90;;;;;;8421764;28;19929;-73
2023/12/06 03:19:03;;;;;;;;;;;3.60;99.90;;;;;;8419823;28;19928;-73
2023/12/06 03:23:05;;;;;;;;;;;3.60;99.90;;;;;;8422900;28;19924;-73
2023/12/06 03:27:07;;;;;;;;;;;3.60;99.90;;;;;;8424196;28;19924;-72
2023/12/06 03:31:09;;;;;;;;;;;3.60;99.90;;;;;;8425584;28;19924;-73
2023/12/06 03:35:10;;;;;;;;;;;3.70;99.90;;;;;;8428527;28;19933;-73
2023/12/06 03:39:12;;;;;;;;;;;3.70;99.90;;;;;;8429936;28;20442;-73
2023/12/06 03:43:14;;;;;;;;;;;3.70;99.90;;;;;;8431831;28;19969;-73
2023/12/06 03:47:15;;;;;;;;;;;3.60;99.90;;;;;;8420542;28;19924;-72
2023/12/06 03:51:17;;;;;;;;;;;3.70;99.90;;;;;;8439235;28;20307;-73
2023/12/06 03:55:19;;;;;;;;;;;3.70;99.90;;;;;;8431552;28;19931;-73
2023/12/06 03:59:21;;;;;;;;;;;3.70;99.90;;;;;;8418261;28;20354;-73
2023/12/06 04:03:23;;;;;;;;;;;3.70;99.90;;;;;;8426244;28;19924;-73
2023/12/06 04:07:25;;;;;;;;;;;3.70;99.90;;;;;;8420250;28;19932;-73
2023/12/06 04:11:27;;;;;;;;;;;3.70;99.90;;;;;;8419624;28;19928;-73
2023/12/06 04:15:29;;;;;;;;;;;3.70;99.90;;;;;;8420866;28;20276;-73
2023/12/06 04:19:31;;;;;;;;;;;3.70;99.90;;;;;;8415844;28;19928;-73
2023/12/06 04:23:32;;;;;;;;;;;3.80;99.90;;;;;;8427278;28;19931;-73
2023/12/06 04:27:34;;;;;;;;;;;3.80;99.90;;;;;;8415742;28;19931;-73
2023/12/06 04:31:36;;;;;;;;;;;3.80;99.90;;;;;;8418350;28;19924;-73
2023/12/06 04:35:38;;;;;;;;;;;3.80;99.90;;;;;;8424925;28;19931;-73
2023/12/06 04:39:40;;;;;;;;;;;3.90;99.90;;;;;;8422534;28;19935;-73
2023/12/06 04:43:41;;;;;;;;;;;3.90;99.90;;;;;;8425901;28;19932;-73
2023/12/06 04:47:43;;;;;;;;;;;3.90;99.90;;;;;;8416495;28;21673;-73
2023/12/06 04:51:44;;;;;;;;;;;3.90;99.90;;;;;;8416346;28;20334;-73
2023/12/06 04:55:46;;;;;;;;;;;3.90;99.90;;;;;;8428580;28;20666;-73
2023/12/06 04:59:48;;;;;;;;;;;4.00;99.90;;;;;;8419730;28;19939;-73
2023/12/06 05:03:50;;;;;;;;;;;4.00;99.90;;;;;;8417838;28;19970;-73
2023/12/06 05:07:51;;;;;;;;;;;4.00;99.90;;;;;;8427385;28;19971;-73
2023/12/06 05:11:53;;;;;;;;;;;4.00;99.90;;;;;;8421157;28;19924;-73
2023/12/06 05:15:55;;;;;;;;;;;4.00;99.90;;;;;;8426147;28;19967;-73
2023/12/06 05:19:57;;;;;;;;;;;4.00;99.90;;;;;;8427935;28;20283;-73
2023/12/06 05:23:58;;;;;;;;;;;4.10;99.90;;;;;;8433421;28;20406;-73
2023/12/06 05:28:00;;;;;;;;;;;4.10;99.90;;;;;;8422973;28;19954;-73
2023/12/06 05:32:02;;;;;;;;;;;4.10;99.90;;;;;;8424009;28;20368;-72
2023/12/06 05:36:07;;;;;;;;;;;4.20;99.90;;;;;;8437208;28;19928;-72
2023/12/06 05:40:09;;;;;;;;;;;4.20;99.90;;;;;;8429049;28;19935;-73
2023/12/06 05:44:11;;;;;;;;;;;4.20;99.90;;;;;;8431853;28;19979;-73
2023/12/06 05:48:13;;;;;;;;;;;4.20;99.90;;;;;;8430057;28;19931;-73
2023/12/06 05:52:14;;;;;;;;;;;4.30;99.90;;;;;;8433425;28;20881;-73
2023/12/06 05:56:16;;;;;;;;;;;4.20;99.90;;;;;;8436164;28;19976;-72
2023/12/06 06:00:18;;;;;;;;;;;4.30;99.90;;;;;;8449915;28;19955;-73
2023/12/06 06:04:20;;;;;;;;;;;4.30;99.90;;;;;;8437070;28;20379;-73
2023/12/06 06:08:21;;;;;;;;;;;4.30;99.90;;;;;;8448152;28;19951;-74
2023/12/06 06:12:23;;;;;;;;;;;4.30;99.90;;;;;;8426033;28;19943;-73
2023/12/06 06:16:25;;;;;;;;;;;4.30;99.90;;;;;;8417878;28;20282;-73
2023/12/06 06:20:27;;;;;;;;;;;4.40;99.90;;;;;;8423862;28;19928;-73
2023/12/06 06:24:28;;;;;;;;;;;4.40;99.90;;;;;;8430093;28;20341;-73
2023/12/06 06:28:30;;;;;;;;;;;4.40;99.90;;;;;;8435694;28;19923;-73
2023/12/06 06:32:34;;;;;;;;;;;4.40;99.90;;;;;;8428151;28;19975;-73
2023/12/06 06:36:36;;;;;;;;;;;4.40;99.90;;;;;;8431168;28;20338;-73
2023/12/06 06:40:38;;;;;;;;;;;4.40;99.90;;;;;;8429653;28;19974;-72
2023/12/06 06:44:40;;;;;;;;;;;4.40;99.90;;;;;;8420000;28;20386;-73
2023/12/06 06:48:55;;;;;;;;;;;4.40;99.90;;;;;;8425482;28;19977;-73
2023/12/06 06:52:59;;;;;;;;;;;4.40;99.90;;;;;;8421021;28;19932;-73
2023/12/06 06:57:00;;;;;;;;;;;4.40;99.90;;;;;;8440299;28;19924;-73
2023/12/06 07:01:02;;;;;;;;;;;4.40;99.90;;;;;;8428399;28;19924;-73
2023/12/06 07:05:06;;;;;;;;;;;4.50;99.90;;;;;;8426718;28;20291;-73
2023/12/06 07:09:08;;;;;;;;;;;4.50;99.90;;;;;;8433471;28;19998;-72
2023/12/06 07:13:10;;;;;;;;;;;4.50;99.90;;;;;;8437172;28;20338;-73
2023/12/06 07:17:11;;;;;;;;;;;4.50;99.90;;;;;;8418512;28;20159;-73
2023/12/06 07:21:13;;;;;;;;;;;4.50;99.90;;;;;;8433728;28;20379;-73
2023/12/06 07:25:15;;;;;;;;;;;4.60;99.90;;;;;;8426693;28;19932;-73
2023/12/06 07:29:17;;;;;;;;;;;4.60;99.90;;;;;;8436211;28;19932;-73
2023/12/06 07:33:19;;;;;;;;;;;4.60;99.90;;;;;;8433673;28;19939;-73
2023/12/06 07:37:21;;;;;;;;;;;4.60;99.90;;;;;;8414024;28;19928;-73
2023/12/06 07:41:23;;;;;;;;;;;4.60;99.90;;;;;;8413565;28;20332;-73
2023/12/06 07:45:25;;;;;;;;;;;4.70;99.90;;;;;;8416975;28;19970;-73
2023/12/06 07:49:26;;;;;;;;;;;4.60;99.90;;;;;;8430050;28;20017;-73
2023/12/06 07:53:28;;;;;;;;;;;4.70;99.90;;;;;;8431488;28;19924;-73
2023/12/06 07:57:31;;;;;;;;;;;4.70;99.90;;;;;;8403741;28;19977;-73
2023/12/06 08:01:33;;;;;;;;;;;4.70;99.90;;;;;;8418891;28;19977;-73
2023/12/06 08:05:35;;;;;;;;;;;4.70;99.90;;;;;;8419234;28;19953;-73
2023/12/06 08:09:39;;;;;;;;;;;4.70;99.90;;;;;;8429349;28;20402;-73
2023/12/06 08:13:41;;;;;;;;;;;4.80;99.90;;;;;;8433702;28;19998;-73
2023/12/06 08:17:43;;;;;;;;;;;4.70;99.90;;;;;;8416986;28;19935;-73
2023/12/06 08:21:44;;;;;;;;;;;4.70;99.90;;;;;;8425203;28;19928;-72
2023/12/06 08:25:46;;;;;;;;;;;4.70;99.90;;;;;;8430539;28;19928;-73
2023/12/06 08:29:48;;;;;;;;;;;4.70;99.90;;;;;;8435920;28;19924;-73
2023/12/06 08:33:50;;;;;;;;;;;4.70;99.90;;;;;;8428551;28;19970;-72
2023/12/06 08:37:52;;;;;;;;;;;4.70;99.90;;;;;;8441868;28;19932;-73
2023/12/06 08:41:54;;;;;;;;;;;4.70;99.90;;;;;;8429036;28;19928;-73
2023/12/06 08:45:55;;;;;;;;;;;4.80;99.90;;;;;;8427935;28;19925;-73
2023/12/06 08:49:57;;;;;;;;;;;4.80;99.90;;;;;;8438368;28;19924;-73
2023/12/06 08:53:59;;;;;;;;;;;4.80;99.90;;;;;;8437766;28;19927;-73
2023/12/06 08:58:01;;;;;;;;;;;4.80;99.90;;;;;;8427540;28;19932;-73
2023/12/06 09:02:02;;;;;;;;;;;4.80;99.90;;;;;;8431995;28;19930;-72
2023/12/06 09:06:04;;;;;;;;;;;4.80;99.90;;;;;;8434696;28;19971;-73
2023/12/06 09:10:09;;;;;;;;;;;4.80;99.90;;;;;;8443152;28;20325;-73
2023/12/06 09:14:11;;;;;;;;;;;4.90;99.90;;;;;;8435700;28;19946;-73
2023/12/06 09:18:13;;;;;;;;;;;5.20;99.90;;;;;;8431128;28;19925;-73
2023/12/06 09:22:15;;;;;;;;;;;5.50;99.90;;;;;;8442252;28;20379;-73
2023/12/06 09:26:20;;;;;;;;;;;5.70;99.90;;;;;;8442683;27;20350;-73
2023/12/06 09:30:22;;;;;;;;;;;5.90;99.90;;;;;;8433243;28;19932;-73
2023/12/06 09:34:23;;;;;;;;;;;6.00;99.90;;;;;;8428151;28;19924;-73
2023/12/06 09:38:34;;;;;;;;;;;6.20;99.90;;;;;;8434730;28;19924;-73
2023/12/06 09:42:37;;;;;;;;;;;6.30;99.90;;;;;;8432899;28;19959;-73
2023/12/06 09:46:39;;;;;;;;;;;6.40;99.90;;;;;;8431772;28;19924;-73
2023/12/06 09:50:41;;;;;;;;;;;6.40;99.90;;;;;;8435885;28;19924;-73
2023/12/06 09:54:43;;;;;;;;;;;6.40;99.90;;;;;;8429436;28;19993;-73
2023/12/06 09:58:45;;;;;;;;;;;6.50;99.90;;;;;;8429913;28;20022;-73
2023/12/06 10:02:48;;;;;;;;;;;6.80;99.90;;;;;;8432562;28;19934;-73
2023/12/06 10:06:50;;;;;;;;;;;6.80;99.90;;;;;;8421616;28;19924;-73
2023/12/06 10:11:01;;;;;;;;;;;6.80;99.90;;;;;;8435241;28;19989;-73
2023/12/06 10:15:03;;;;;;;;;;;6.80;99.90;;;;;;8428892;28;19932;-73
2023/12/06 10:19:05;;;;;;;;;;;6.60;99.90;;;;;;8430293;28;19924;-72
2023/12/06 10:23:10;;;;;;;;;;;6.50;99.90;;;;;;8441341;28;19950;-73
2023/12/06 10:27:12;;;;;;;;;;;6.40;99.90;;;;;;8434424;28;19932;-73
2023/12/06 10:31:14;;;;;;;;;;;6.30;99.90;;;;;;8438028;28;19932;-73
2023/12/06 10:35:17;;;;;;;;;;;6.40;99.90;;;;;;8437750;28;19997;-73
2023/12/06 10:39:19;;;;;;;;;;;6.50;99.90;;;;;;8438357;28;19924;-73
2023/12/06 10:43:22;;;;;;;;;;;6.60;99.90;;;;;;8427566;28;19928;-73
2023/12/06 10:47:24;;;;;;;;;;;7.00;99.90;;;;;;8426331;28;19973;-73
2023/12/06 10:51:27;;;;;;;;;;;7.80;99.90;;;;;;8443691;28;19924;-73
2023/12/06 10:55:32;;;;;;;;;;;8.50;99.90;;;;;;8435585;28;19924;-73
2023/12/06 10:59:36;;;;;;;;;;;9.30;99.90;;;;;;8445151;28;19928;-73
2023/12/06 11:03:38;;;;;;;;;;;10.20;99.90;;;;;;8434372;28;20260;-73
2023/12/06 11:07:48;;;;;;;;;;;11.10;99.90;;;;;;8419026;28;19939;-73
2023/12/06 11:12:14;;;;;;;;;;;11.80;99.90;;;;;;8425479;28;19924;-73
2023/12/06 11:16:34;;;;;;;;;;;12.00;99.90;;;;;;8399628;28;19930;-72
2023/12/06 11:20:37;;;;;;;;;;;11.40;99.90;;;;;;8422621;28;20376;-73
2023/12/06 11:24:39;;;;;;;;;;;10.80;99.90;;;;;;8425108;28;20398;-73
2023/12/06 11:28:41;;;;;;;;;;;10.10;99.90;;;;;;8425718;28;19924;-73
2023/12/06 11:32:43;;;;;;;;;;;9.50;99.90;;;;;;8423814;28;19924;-72
2023/12/06 11:36:55;;;;;;;;;;;9.00;99.90;;;;;;8424694;28;19924;-72
2023/12/06 11:40:58;;;;;;;;;;;8.60;99.90;;;;;;8431002;28;19971;-73
2023/12/06 11:45:00;;;;;;;;;;;8.20;99.90;;;;;;8469311;27;20295;-73
2023/12/06 11:49:02;;;;;;;;;;;7.90;99.90;;;;;;8429886;28;19931;-72
2023/12/06 11:53:04;;;;;;;;;;;7.70;99.90;;;;;;8426794;28;19923;-73
2023/12/06 11:57:10;;;;;;;;;;;7.50;99.90;;;;;;8429210;28;20394;-72
2023/12/06 12:01:12;;;;;;;;;;;7.50;99.90;;;;;;8414394;28;19971;-73
2023/12/06 12:05:14;;;;;;;;;;;7.40;99.90;;;;;;8413220;28;19928;-72
2023/12/06 12:09:16;;;;;;;;;;;7.30;99.90;;;;;;8412827;28;20340;-72
2023/12/06 12:13:19;;;;;;;;;;;7.20;99.90;;;;;;8405505;28;19925;-73
2023/12/06 12:17:20;;;;;;;;;;;7.10;99.90;;;;;;8409266;28;20310;-72
2023/12/06 12:21:25;;;;;;;;;;;7.10;99.90;;;;;;8420148;28;19927;-73
2023/12/06 12:25:27;;;;;;;;;;;7.20;99.90;;;;;;8423486;28;19924;-72
2023/12/06 12:29:28;;;;;;;;;;;7.60;99.90;;;;;;8448879;28;19924;-72
2023/12/06 12:33:31;;;;;;;;;;;8.40;99.90;;;;;;8449310;28;19924;-72
2023/12/06 12:37:33;;;;;;;;;;;9.10;99.90;;;;;;8432166;28;20375;-73
2023/12/06 12:41:35;;;;;;;;;;;9.80;99.90;;;;;;8452861;28;19984;-73
2023/12/06 12:45:37;;;;;;;;;;;10.50;99.90;;;;;;8447671;28;20368;-73
2023/12/06 12:49:40;;;;;;;;;;;11.40;99.90;;;;;;8437189;28;19928;-73
2023/12/06 12:53:45;;;;;;;;;;;11.80;99.90;;;;;;8425265;28;19977;-72
2023/12/06 12:57:48;;;;;;;;;;;11.80;99.90;;;;;;8423047;28;19951;-73
2023/12/06 13:01:50;;;;;;;;;;;11.70;99.90;;;;;;8437439;28;20496;-73
2023/12/06 13:05:52;;;;;;;;;;;11.80;99.90;;;;;;8429942;28;19946;-72
2023/12/06 13:09:57;;;;;;;;;;;11.90;99.90;;;;;;8441748;28;19924;-72
2023/12/06 13:14:01;;;;;;;;;;;12.20;99.90;;;;;;8426719;28;20282;-73
2023/12/06 13:18:03;;;;;;;;;;;11.90;99.90;;;;;;8435391;28;19927;-72
2023/12/06 13:22:04;;;;;;;;;;;11.40;99.90;;;;;;8446776;28;20386;-72
2023/12/06 13:26:12;;;;;;;;;;;10.90;99.90;;;;;;8445619;28;19963;-72
2023/12/06 13:30:14;;;;;;;;;;;10.40;99.90;;;;;;8444947;28;19928;-72
2023/12/06 13:34:16;;;;;;;;;;;10.00;99.90;;;;;;8439523;28;20395;-72
2023/12/06 13:38:17;;;;;;;;;;;9.60;99.90;;;;;;8438712;28;20321;-73
2023/12/06 13:42:19;;;;;;;;;;;9.20;99.90;;;;;;8439772;28;20395;-72
2023/12/06 13:46:21;;;;;;;;;;;8.90;99.90;;;;;;8433583;28;19931;-73
2023/12/06 13:50:23;;;;;;;;;;;8.70;99.90;;;;;;8438296;28;20406;-73
2023/12/06 13:54:24;;;;;;;;;;;8.60;99.90;;;;;;8433711;28;19931;-73
2023/12/06 13:58:26;;;;;;;;;;;8.50;99.90;;;;;;8444965;28;20332;-73
2023/12/06 14:02:28;;;;;;;;;;;8.40;99.90;;;;;;8434414;28;19931;-73
2023/12/06 14:06:33;;;;;;;;;;;8.30;99.90;;;;;;8447421;28;19930;-73
2023/12/06 14:10:34;;;;;;;;;;;8.10;99.90;;;;;;8443222;28;19924;-72
2023/12/06 14:14:37;;;;;;;;;;;8.00;99.90;;;;;;8440640;28;20359;-73
2023/12/06 14:18:39;;;;;;;;;;;7.80;99.90;;;;;;8419167;28;19930;-72
2023/12/06 14:22:40;;;;;;;;;;;7.80;99.90;;;;;;8444475;28;19931;-72
2023/12/06 14:26:43;;;;;;;;;;;7.90;99.90;;;;;;8444645;28;20305;-73
2023/12/06 14:30:45;;;;;;;;;;;8.00;99.90;;;;;;8441249;28;19969;-72
2023/12/06 14:34:46;;;;;;;;;;;8.10;99.90;;;;;;8442175;28;20659;-72
2023/12/06 14:38:48;;;;;;;;;;;8.20;99.90;;;;;;8440531;28;19931;-73
2023/12/06 14:42:50;;;;;;;;;;;8.20;99.90;;;;;;8439659;28;19924;-72
2023/12/06 14:46:53;;;;;;;;;;;8.20;99.90;;;;;;8436566;28;19993;-73
2023/12/06 14:50:55;;;;;;;;;;;8.20;99.90;;;;;;8427269;28;20229;-72
2023/12/06 14:54:56;;;;;;;;;;;8.10;99.90;;;;;;8428250;28;19928;-72
2023/12/06 14:59:01;;;;;;;;;;;8.00;99.90;;;;;;8433583;28;20420;-73
2023/12/06 15:03:03;;;;;;;;;;;7.80;99.90;;;;;;8434340;28;19928;-72
2023/12/06 15:07:05;;;;;;;;;;;7.70;99.90;;;;;;8445923;28;19976;-73
2023/12/06 15:15:46;;;;;;;;;;;7.80;99.90;;;;;;8427177;28;19924;-74
2023/12/06 15:19:48;;;;;;;;;;;8.00;99.90;;;;;;8424477;28;19936;-73
2023/12/06 15:23:50;;;;;;;;;;;7.90;99.90;;;;;;8429125;28;19924;-72
2023/12/06 15:27:51;;;;;;;;;;;7.70;99.90;;;;;;8425119;28;19967;-72
2023/12/06 15:31:53;;;;;;;;;;;7.40;99.90;;;;;;8419050;28;19924;-73
2023/12/06 15:35:55;;;;;;;;;;;7.20;99.90;;;;;;8416691;28;19924;-73
2023/12/06 15:39:57;;;;;;;;;;;7.00;99.90;;;;;;8425664;28;19963;-72
2023/12/06 15:44:00;;;;;;;;;;;6.80;99.90;;;;;;8421167;28;19971;-73
2023/12/06 15:48:05;;;;;;;;;;;6.70;99.90;;;;;;8425891;28;20171;-73
2023/12/06 15:52:08;;;;;;;;;;;6.50;99.90;;;;;;8428604;28;19928;-73
2023/12/06 15:56:10;;;;;;;;;;;6.30;99.90;;;;;;8408139;28;19928;-73
2023/12/06 16:00:12;;;;;;;;;;;6.20;99.90;;;;;;8402767;28;19929;-73
2023/12/06 16:04:14;;;;;;;;;;;6.10;99.90;;;;;;8416925;28;19935;-73
2023/12/06 16:08:15;;;;;;;;;;;6.00;99.90;;;;;;8419112;28;20011;-72
2023/12/06 16:12:17;;;;;;;;;;;5.90;99.90;;;;;;8409642;28;19923;-73
2023/12/06 16:16:19;;;;;;;;;;;5.70;99.90;;;;;;8401813;28;19928;-73
2023/12/06 16:20:21;;;;;;;;;;;5.50;99.90;;;;;;8416423;28;20529;-73
2023/12/06 16:24:23;;;;;;;;;;;5.40;99.90;;;;;;8413461;28;19928;-73
2023/12/06 16:28:25;;;;;;;;;;;5.30;99.90;;;;;;8434915;28;19924;-73
2023/12/06 16:32:27;;;;;;;;;;;5.20;99.90;;;;;;8430299;28;19939;-72
2023/12/06 16:36:28;;;;;;;;;;;5.10;99.90;;;;;;8431305;28;20462;-73
2023/12/06 16:40:33;;;;;;;;;;;5.00;99.90;;;;;;8402709;28;19931;-73
2023/12/06 16:44:35;;;;;;;;;;;4.90;99.90;;;;;;8392924;28;19924;-73
2023/12/06 16:48:38;;;;;;;;;;;4.80;99.90;;;;;;8387124;28;19962;-73
2023/12/06 16:52:40;;;;;;;;;;;4.70;99.90;;;;;;8386077;28;19981;-73
2023/12/06 16:56:41;;;;;;;;;;;4.70;99.90;;;;;;8392454;28;19935;-73
2023/12/06 17:00:43;;;;;;;;;;;4.50;99.90;;;;;;8387732;28;19970;-73
2023/12/06 17:04:45;;;;;;;;;;;4.50;99.90;;;;;;8392508;28;19982;-73
2023/12/06 17:08:47;;;;;;;;;;;4.40;99.90;;;;;;8392366;28;20453;-73
2023/12/06 17:12:48;;;;;;;;;;;4.40;99.90;;;;;;8409893;28;19924;-73
2023/12/06 17:16:51;;;;;;;;;;;4.30;99.90;;;;;;8408434;28;19963;-73
2023/12/06 17:20:53;;;;;;;;;;;4.20;99.90;;;;;;8409319;28;19943;-73
2023/12/06 17:24:55;;;;;;;;;;;4.10;99.90;;;;;;8405092;28;20032;-73
2023/12/06 17:28:56;;;;;;;;;;;4.00;99.90;;;;;;8399675;28;20376;-73
2023/12/06 17:32:58;;;;;;;;;;;3.90;99.90;;;;;;8403453;28;19981;-73
2023/12/06 17:37:00;;;;;;;;;;;3.90;99.90;;;;;;8404135;28;19928;-73
2023/12/06 17:41:02;;;;;;;;;;;3.90;99.90;;;;;;8394516;28;19935;-73
2023/12/06 17:45:04;;;;;;;;;;;3.80;99.90;;;;;;8403338;28;19929;-72
2023/12/06 17:49:07;;;;;;;;;;;3.80;99.90;;;;;;8399947;28;19924;-73
2023/12/06 17:53:09;;;;;;;;;;;3.70;99.90;;;;;;8393887;28;19924;-73
2023/12/06 17:57:11;;;;;;;;;;;3.60;99.90;;;;;;8397506;28;19973;-73
2023/12/06 18:01:14;;;;;;;;;;;3.60;99.90;;;;;;8399000;28;19963;-72
2023/12/06 18:05:16;;;;;;;;;;;3.50;99.90;;;;;;8390609;28;19953;-73
2023/12/06 18:09:18;;;;;;;;;;;3.40;99.90;;;;;;8398431;28;19934;-73
2023/12/06 18:13:22;;;;;;;;;;;3.40;99.90;;;;;;8396808;28;19932;-73
2023/12/06 18:17:25;;;;;;;;;;;3.30;99.90;;;;;;8402558;28;19928;-73
2023/12/06 18:21:26;;;;;;;;;;;3.20;99.90;;;;;;8403507;28;19931;-73
2023/12/06 18:25:30;;;;;;;;;;;3.20;99.90;;;;;;8398994;28;19971;-72
2023/12/06 18:29:32;;;;;;;;;;;3.10;99.90;;;;;;8395192;28;19974;-72
2023/12/06 18:33:33;;;;;;;;;;;3.10;99.90;;;;;;8394034;28;19928;-72
2023/12/06 18:37:35;;;;;;;;;;;3.00;99.90;;;;;;8399868;28;21035;-72
2023/12/06 18:41:37;;;;;;;;;;;3.00;99.90;;;;;;8398643;28;20300;-72
2023/12/06 18:45:39;;;;;;;;;;;2.90;99.90;;;;;;8396637;28;19935;-73
2023/12/06 18:49:41;;;;;;;;;;;2.90;99.90;;;;;;8401756;28;19967;-72
2023/12/06 18:53:42;;;;;;;;;;;2.90;99.90;;;;;;8399913;28;19936;-73
2023/12/06 18:57:44;;;;;;;;;;;2.90;99.90;;;;;;8393528;28;19939;-73
2023/12/06 19:01:46;;;;;;;;;;;2.90;99.90;;;;;;8394851;28;19932;-72
2023/12/06 19:05:48;;;;;;;;;;;2.90;99.90;;;;;;8402303;28;19928;-72
2023/12/06 19:09:49;;;;;;;;;;;2.90;99.90;;;;;;8403476;28;20376;-72
2023/12/06 19:13:51;;;;;;;;;;;2.80;99.90;;;;;;8408463;28;19932;-73
2023/12/06 19:17:53;;;;;;;;;;;2.80;99.90;;;;;;8405454;28;19931;-72
2023/12/06 19:21:55;;;;;;;;;;;2.80;99.90;;;;;;8407766;28;20019;-72
2023/12/06 19:25:56;;;;;;;;;;;2.70;99.90;;;;;;8388396;28;19929;-73
2023/12/06 19:29:58;;;;;;;;;;;2.60;99.90;;;;;;8391458;28;19928;-73
2023/12/06 19:34:00;;;;;;;;;;;2.50;99.90;;;;;;8385986;28;24273;-72
2023/12/06 19:38:02;;;;;;;;;;;2.40;99.90;;;;;;8382772;28;20274;-72
2023/12/06 19:42:04;;;;;;;;;;;2.40;99.90;;;;;;8384901;28;20450;-73
2023/12/06 19:46:06;;;;;;;;;;;2.30;99.90;;;;;;8396600;28;19925;-73
2023/12/06 19:50:08;;;;;;;;;;;2.30;99.90;;;;;;8397210;28;20490;-72
2023/12/06 19:54:10;;;;;;;;;;;2.20;99.90;;;;;;8398820;28;19960;-72
2023/12/06 19:58:13;;;;;;;;;;;2.20;99.90;;;;;;8391492;28;19970;-73
2023/12/06 20:02:14;;;;;;;;;;;2.10;99.90;;;;;;8389397;28;20200;-72
2023/12/06 20:06:16;;;;;;;;;;;2.10;99.90;;;;;;8386776;28;19967;-73
2023/12/06 20:10:18;;;;;;;;;;;2.00;99.90;;;;;;8388748;28;19936;-72
2023/12/06 20:14:20;;;;;;;;;;;2.00;99.90;;;;;;8389032;28;19985;-73
2023/12/06 20:18:21;;;;;;;;;;;2.00;99.90;;;;;;8390406;28;19932;-72
2023/12/06 20:22:23;;;;;;;;;;;1.90;99.90;;;;;;8392710;28;20318;-73
2023/12/06 20:26:25;;;;;;;;;;;1.90;99.90;;;;;;8396381;28;19986;-73
2023/12/06 20:30:27;;;;;;;;;;;1.80;99.90;;;;;;8395118;28;19975;-73
2023/12/06 20:34:28;;;;;;;;;;;1.70;99.90;;;;;;8398091;28;19932;-72
2023/12/06 20:38:30;;;;;;;;;;;1.60;99.90;;;;;;8406962;28;19994;-73
2023/12/06 20:42:32;;;;;;;;;;;1.60;99.90;;;;;;8389383;28;20787;-73
2023/12/06 20:46:33;;;;;;;;;;;1.60;99.90;;;;;;8429130;27;19928;-73
2023/12/06 20:50:35;;;;;;;;;;;1.60;99.90;;;;;;8398657;28;20410;-73
2023/12/06 20:54:37;;;;;;;;;;;1.50;99.90;;;;;;8398421;28;19975;-72
2023/12/06 20:58:38;;;;;;;;;;;1.50;99.90;;;;;;8406214;28;19963;-73
2023/12/06 21:02:40;;;;;;;;;;;1.50;99.90;;;;;;8395833;28;20020;-72
2023/12/06 21:06:58;;;;;;;;;;;1.40;99.90;;;;;;8396457;28;19932;-73
2023/12/06 21:10:59;;;;;;;;;;;1.40;99.90;;;;;;8396457;28;19928;-73
2023/12/06 21:15:01;;;;;;;;;;;1.40;99.90;;;;;;8397172;28;20509;-72
2023/12/06 21:19:03;;;;;;;;;;;1.30;99.90;;;;;;8392586;28;20410;-72
2023/12/06 21:23:04;;;;;;;;;;;1.40;99.90;;;;;;8395269;28;20015;-73
2023/12/06 21:27:06;;;;;;;;;;;1.30;99.90;;;;;;8394548;28;20445;-72
2023/12/06 21:31:08;;;;;;;;;;;1.20;99.90;;;;;;8393731;28;19959;-72
2023/12/06 21:35:10;;;;;;;;;;;1.20;99.90;;;;;;8394719;28;20011;-73
2023/12/06 21:39:13;;;;;;;;;;;1.10;99.90;;;;;;8431021;27;19925;-73
2023/12/06 21:43:15;;;;;;;;;;;1.10;99.90;;;;;;8396658;28;19931;-72
2023/12/06 21:47:17;;;;;;;;;;;1.10;99.90;;;;;;8430934;27;19977;-73
2023/12/06 21:51:19;;;;;;;;;;;1.10;99.90;;;;;;8395329;28;19933;-73
2023/12/06 21:55:21;;;;;;;;;;;1.10;99.90;;;;;;8393571;28;19928;-73
2023/12/06 21:59:23;;;;;;;;;;;1.00;99.90;;;;;;8393703;28;20606;-73
2023/12/06 22:03:24;;;;;;;;;;;1.10;99.90;;;;;;8421780;28;19927;-72
2023/12/06 22:07:26;;;;;;;;;;;1.00;99.90;;;;;;8428715;28;19924;-72
2023/12/06 22:11:28;;;;;;;;;;;1.00;99.90;;;;;;8442954;28;19969;-72
2023/12/06 22:15:29;;;;;;;;;;;1.00;99.90;;;;;;8433855;28;19969;-72
2023/12/06 22:19:32;;;;;;;;;;;1.00;99.90;;;;;;8426154;28;20335;-73
2023/12/06 22:23:34;;;;;;;;;;;1.00;99.90;;;;;;8434998;28;19928;-72
2023/12/06 22:27:36;;;;;;;;;;;0.90;99.90;;;;;;8430611;28;19924;-73
2023/12/06 22:31:37;;;;;;;;;;;0.90;99.90;;;;;;8430469;28;20376;-72
2023/12/06 22:35:39;;;;;;;;;;;0.90;99.90;;;;;;8437620;28;19931;-72
2023/12/06 22:39:41;;;;;;;;;;;0.80;99.90;;;;;;8445068;28;19927;-73
2023/12/06 22:43:43;;;;;;;;;;;0.80;99.90;;;;;;8442754;28;19924;-73
2023/12/06 22:47:44;;;;;;;;;;;0.80;99.90;;;;;;8432281;28;19931;-73
2023/12/06 22:51:46;;;;;;;;;;;0.80;99.90;;;;;;8430602;28;19924;-73
2023/12/06 22:55:48;;;;;;;;;;;0.80;99.90;;;;;;8448931;28;19925;-73
2023/12/06 22:59:49;;;;;;;;;;;0.80;99.90;;;;;;8448421;28;19977;-73
2023/12/06 23:03:51;;;;;;;;;;;0.90;99.90;;;;;;8442492;28;19928;-72
2023/12/06 23:07:53;;;;;;;;;;;0.90;99.90;;;;;;8431324;28;20427;-73
2023/12/06 23:11:54;;;;;;;;;;;0.90;99.90;;;;;;8445091;28;19932;-73
2023/12/06 23:15:56;;;;;;;;;;;0.90;99.90;;;;;;8438503;28;19932;-73
2023/12/06 23:19:58;;;;;;;;;;;0.90;99.90;;;;;;8437720;28;19924;-72
2023/12/06 23:24:00;;;;;;;;;;;0.80;99.90;;;;;;8435868;28;19957;-73
2023/12/06 23:28:01;;;;;;;;;;;0.80;99.90;;;;;;8444462;28;20363;-73
2023/12/06 23:32:03;;;;;;;;;;;0.80;99.90;;;;;;8442317;28;19963;-72
2023/12/06 23:36:05;;;;;;;;;;;0.70;99.90;;;;;;8439552;28;19928;-73
2023/12/06 23:40:07;;;;;;;;;;;0.70;99.90;;;;;;8434660;28;19931;-72
2023/12/06 23:44:09;;;;;;;;;;;0.60;99.90;;;;;;8445183;28;20391;-72
2023/12/06 23:48:11;;;;;;;;;;;0.60;99.90;;;;;;8434305;28;20375;-73
2023/12/06 23:52:13;;;;;;;;;;;0.60;99.90;;;;;;8439345;28;20383;-72